createdAt,value
2022-08-03T00:00:18.697Z,59.94
2022-08-03T00:02:45.019Z,59.67
2022-08-03T00:05:11.237Z,60.17
2022-08-03T00:07:37.465Z,59.85
2022-08-03T00:10:03.641Z,59.87
2022-08-03T00:12:29.876Z,60.57
2022-08-03T00:14:56.042Z,60.25
2022-08-03T00:17:22.272Z,60.14
2022-08-03T00:19:48.462Z,60.00
2022-08-03T00:22:14.889Z,59.96
2022-08-03T00:24:41.281Z,60.53
2022-08-03T00:27:07.505Z,60.04
2022-08-03T00:29:33.710Z,60.39
2022-08-03T00:32:19.914Z,60.62
2022-08-03T00:34:57.718Z,61.09
2022-08-03T00:37:41.697Z,61.06
2022-08-03T00:40:08.146Z,60.98
2022-08-03T00:42:34.369Z,61.20
2022-08-03T00:45:00.588Z,60.93
2022-08-03T00:47:26.799Z,60.96
2022-08-03T00:49:53.035Z,60.93
2022-08-03T00:52:19.431Z,61.02
2022-08-03T00:54:45.807Z,60.85
2022-08-03T00:57:12.040Z,60.39
2022-08-03T00:59:38.243Z,60.54
2022-08-03T01:02:04.484Z,61.00
2022-08-03T01:04:30.663Z,61.09
2022-08-03T01:06:56.909Z,61.06
2022-08-03T01:09:23.140Z,60.93
2022-08-03T01:11:59.826Z,60.85
2022-08-03T01:14:26.640Z,60.91
2022-08-03T01:16:52.845Z,61.64
2022-08-03T01:19:19.175Z,61.28
2022-08-03T01:21:45.375Z,60.94
2022-08-03T01:24:13.029Z,60.75
2022-08-03T01:26:39.233Z,60.98
2022-08-03T01:29:05.453Z,61.57
2022-08-03T01:31:31.668Z,61.02
2022-08-03T01:33:57.955Z,61.38
2022-08-03T01:36:24.138Z,61.45
2022-08-03T01:38:50.365Z,61.44
2022-08-03T01:41:16.572Z,61.65
2022-08-03T01:44:28.398Z,62.06
2022-08-03T01:46:28.943Z,61.96
2022-08-03T01:48:55.231Z,62.12
2022-08-03T01:51:21.505Z,62.26
2022-08-03T01:53:47.708Z,62.39
2022-08-03T01:56:13.912Z,62.09
2022-08-03T01:58:40.111Z,62.46
2022-08-03T02:01:06.431Z,62.40
2022-08-03T02:03:32.660Z,62.15
2022-08-03T02:07:02.301Z,62.60
2022-08-03T02:08:45.017Z,62.74
2022-08-03T02:11:11.229Z,62.89
2022-08-03T02:13:37.446Z,62.64
2022-08-03T02:16:03.647Z,62.40
2022-08-03T02:18:29.892Z,62.78
2022-08-03T02:20:56.092Z,62.45
2022-08-03T02:23:22.318Z,62.81
2022-08-03T02:25:48.497Z,63.23
2022-08-03T02:28:14.694Z,62.69
2022-08-03T02:30:40.885Z,62.86
2022-08-03T02:33:07.101Z,62.09
2022-08-03T02:35:35.021Z,61.66
2022-08-03T02:38:01.184Z,62.05
2022-08-03T02:40:27.379Z,60.98
2022-08-03T02:42:53.572Z,61.38
2022-08-03T02:45:19.780Z,61.78
2022-08-03T02:47:53.565Z,61.66
2022-08-03T02:50:21.075Z,61.70
2022-08-03T02:52:47.319Z,61.52
2022-08-03T02:55:13.489Z,61.34
2022-08-03T02:57:39.686Z,61.47
2022-08-03T03:00:05.884Z,61.71
2022-08-03T03:02:32.129Z,62.02
2022-08-03T03:05:55.855Z,62.17
2022-08-03T03:07:52.993Z,62.03
2022-08-03T03:10:19.409Z,61.39
2022-08-03T03:12:45.663Z,61.59
2022-08-03T03:15:11.863Z,61.93
2022-08-03T03:17:38.078Z,61.52
2022-08-03T03:20:04.278Z,61.50
2022-08-03T03:22:30.498Z,61.81
2022-08-03T03:24:56.731Z,61.90
2022-08-03T03:27:24.481Z,61.52
2022-08-03T03:29:50.699Z,61.50
2022-08-03T03:32:17.181Z,61.63
2022-08-03T03:34:44.232Z,61.92
2022-08-03T03:37:10.582Z,62.08
2022-08-03T03:39:36.795Z,62.05
2022-08-03T03:42:03.008Z,62.45
2022-08-03T03:44:29.244Z,62.40
2022-08-03T03:46:55.462Z,62.41
2022-08-03T03:49:21.734Z,62.71
2022-08-03T03:51:48.029Z,62.46
2022-08-03T03:54:14.202Z,62.79
2022-08-03T03:56:40.420Z,62.46
2022-08-03T03:59:06.605Z,62.50
2022-08-03T04:01:32.798Z,62.36
2022-08-03T04:03:59.045Z,62.58
2022-08-03T04:06:25.271Z,62.75
2022-08-03T04:08:51.490Z,62.34
2022-08-03T04:11:17.706Z,62.79
2022-08-03T04:13:43.923Z,62.94
2022-08-03T04:16:10.124Z,61.37
2022-08-03T04:18:36.342Z,59.33
2022-08-03T04:21:02.550Z,56.95
2022-08-03T04:23:28.773Z,54.38
2022-08-03T04:25:54.982Z,52.31
2022-08-03T04:28:30.920Z,50.12
2022-08-03T04:30:57.983Z,48.23
2022-08-03T04:33:24.247Z,46.49
2022-08-03T04:36:01.801Z,45.30
2022-08-03T04:38:29.298Z,44.00
2022-08-03T04:40:55.476Z,42.73
2022-08-03T04:43:21.673Z,42.71
2022-08-03T04:45:47.905Z,41.44
2022-08-03T04:48:14.103Z,42.04
2022-08-03T04:50:40.304Z,41.33
2022-08-03T04:53:06.487Z,41.47
2022-08-03T04:55:34.532Z,42.02
2022-08-03T04:58:00.751Z,42.50
2022-08-03T05:00:26.967Z,42.19
2022-08-03T05:02:53.203Z,42.61
2022-08-03T05:05:19.549Z,43.35
2022-08-03T05:07:45.786Z,43.24
2022-08-03T05:10:15.082Z,43.44
2022-08-03T05:12:42.825Z,43.52
2022-08-03T05:15:09.009Z,43.10
2022-08-03T05:17:35.256Z,43.19
2022-08-03T05:20:01.485Z,43.84
2022-08-03T05:22:27.695Z,44.17
2022-08-03T05:24:53.968Z,44.61
2022-08-03T05:27:20.191Z,44.95
2022-08-03T05:29:46.426Z,45.10
2022-08-03T05:32:12.617Z,43.96
2022-08-03T05:34:38.828Z,45.64
2022-08-03T05:37:05.037Z,45.84
2022-08-03T05:39:31.278Z,46.52
2022-08-03T05:41:57.480Z,46.26
2022-08-03T05:44:23.722Z,46.32
2022-08-03T05:46:49.947Z,46.85
2022-08-03T05:49:16.197Z,45.97
2022-08-03T05:51:42.448Z,46.86
2022-08-03T05:54:08.637Z,46.35
2022-08-03T05:56:34.858Z,47.17
2022-08-03T05:59:16.318Z,46.57
2022-08-03T06:01:47.412Z,46.77
2022-08-03T06:04:13.746Z,46.41
2022-08-03T06:06:39.984Z,47.53
2022-08-03T06:09:06.179Z,45.82
2022-08-03T06:11:32.404Z,46.04
2022-08-03T06:13:58.601Z,45.89
2022-08-03T06:16:24.836Z,46.48
2022-08-03T06:18:51.025Z,44.15
2022-08-03T06:21:17.212Z,44.12
2022-08-03T06:23:54.320Z,44.10
2022-08-03T06:26:21.609Z,45.56
2022-08-03T06:28:52.869Z,45.51
2022-08-03T06:31:20.086Z,43.93
2022-08-03T06:33:48.346Z,43.60
2022-08-03T06:36:32.534Z,44.16
2022-08-03T06:38:58.769Z,44.46
2022-08-03T06:41:24.959Z,42.63
2022-08-03T06:44:03.444Z,41.55
2022-08-03T06:46:30.554Z,42.33
2022-08-03T06:48:56.867Z,42.55
2022-08-03T06:51:23.107Z,40.93
2022-08-03T06:54:09.303Z,41.21
2022-08-03T06:56:35.494Z,40.40
2022-08-03T06:59:01.718Z,39.78
2022-08-03T07:01:28.000Z,40.72
2022-08-03T07:03:54.221Z,40.72
2022-08-03T07:06:20.477Z,39.71
2022-08-03T07:08:49.500Z,39.30
2022-08-03T07:11:18.112Z,39.63
2022-08-03T07:13:44.294Z,38.88
2022-08-03T07:16:10.508Z,38.65
2022-08-03T07:18:36.709Z,38.12
2022-08-03T07:21:02.937Z,37.99
2022-08-03T07:23:29.129Z,38.99
2022-08-03T07:25:55.349Z,38.15
2022-08-03T07:28:21.582Z,38.29
2022-08-03T07:30:47.794Z,38.76
2022-08-03T07:33:14.073Z,38.83
2022-08-03T07:35:40.274Z,37.87
2022-08-03T07:38:06.537Z,37.65
2022-08-03T07:40:32.735Z,37.11
2022-08-03T07:42:58.964Z,37.41
2022-08-03T07:45:25.167Z,36.72
2022-08-03T07:47:53.555Z,35.90
2022-08-03T07:50:20.156Z,35.56
2022-08-03T07:52:46.353Z,35.84
2022-08-03T07:55:12.587Z,35.63
2022-08-03T07:57:38.793Z,35.84
2022-08-03T08:00:05.033Z,35.53
2022-08-03T08:02:31.248Z,35.48
2022-08-03T08:05:00.041Z,36.20
2022-08-03T08:07:29.856Z,36.44
2022-08-03T08:09:56.148Z,36.07
2022-08-03T08:12:22.382Z,35.43
2022-08-03T08:14:48.656Z,36.23
2022-08-03T08:17:14.953Z,36.97
2022-08-03T08:19:47.499Z,36.90
2022-08-03T08:22:18.308Z,35.98
2022-08-03T08:24:49.775Z,35.77
2022-08-03T08:27:17.992Z,36.13
2022-08-03T08:29:47.576Z,37.00
2022-08-03T08:32:19.656Z,35.90
2022-08-03T08:34:45.973Z,35.95
2022-08-03T08:37:12.269Z,35.81
2022-08-03T08:39:38.486Z,35.66
2022-08-03T08:42:04.724Z,35.04
2022-08-03T08:44:30.965Z,35.76
2022-08-03T08:46:57.166Z,36.55
2022-08-03T08:49:23.440Z,34.93
2022-08-03T08:51:59.047Z,35.34
2022-08-03T08:54:26.807Z,35.65
2022-08-03T08:56:53.015Z,35.77
2022-08-03T08:59:19.260Z,35.61
2022-08-03T09:01:45.512Z,34.52
2022-08-03T09:04:12.561Z,34.42
2022-08-03T09:06:38.790Z,35.20
2022-08-03T09:09:05.013Z,35.68
2022-08-03T09:11:51.554Z,36.01
2022-08-03T09:14:36.547Z,37.64
2022-08-03T09:17:03.656Z,36.43
2022-08-03T09:19:29.892Z,35.98
2022-08-03T09:21:56.133Z,37.33
2022-08-03T09:24:40.665Z,36.19
2022-08-03T09:27:07.932Z,37.45
2022-08-03T09:29:34.247Z,37.41
2022-08-03T09:32:00.538Z,36.97
2022-08-03T09:34:26.764Z,37.14
2022-08-03T09:36:53.011Z,36.63
2022-08-03T09:39:19.218Z,37.07
2022-08-03T09:41:45.449Z,36.72
2022-08-03T09:44:24.251Z,35.72
2022-08-03T09:46:52.198Z,35.97
2022-08-03T09:49:18.523Z,37.18
2022-08-03T09:52:32.115Z,36.16
2022-08-03T09:54:31.194Z,36.94
2022-08-03T09:56:57.404Z,36.61
2022-08-03T09:59:23.669Z,36.84
2022-08-03T10:01:49.913Z,35.53
2022-08-03T10:04:16.141Z,36.38
2022-08-03T10:06:42.377Z,36.51
2022-08-03T10:09:08.653Z,35.83
2022-08-03T10:11:40.572Z,36.00
2022-08-03T10:14:07.536Z,35.66
2022-08-03T10:16:33.737Z,36.94
2022-08-03T10:19:00.035Z,36.80
2022-08-03T10:21:26.304Z,36.38
2022-08-03T10:23:52.500Z,36.19
2022-08-03T10:26:18.734Z,35.34
2022-08-03T10:28:45.618Z,36.13
2022-08-03T10:31:11.925Z,36.33
2022-08-03T10:33:50.993Z,36.26
2022-08-03T10:36:18.942Z,34.99
2022-08-03T10:38:45.205Z,35.83
2022-08-03T10:41:11.414Z,34.92
2022-08-03T10:43:37.671Z,35.51
2022-08-03T10:46:03.890Z,36.26
2022-08-03T10:48:30.099Z,37.21
2022-08-03T10:50:56.350Z,34.58
2022-08-03T10:53:23.038Z,34.90
2022-08-03T10:55:49.726Z,34.74
2022-08-03T10:58:15.935Z,35.53
2022-08-03T11:00:57.005Z,35.19
2022-08-03T11:03:23.278Z,35.52
2022-08-03T11:05:49.573Z,35.46
2022-08-03T11:08:15.794Z,34.79
2022-08-03T11:10:42.041Z,35.71
2022-08-03T11:13:08.268Z,35.46
2022-08-03T11:15:34.487Z,34.56
2022-08-03T11:18:00.737Z,33.50
2022-08-03T11:20:27.842Z,34.91
2022-08-03T11:22:54.183Z,33.31
2022-08-03T11:25:55.030Z,33.49
2022-08-03T11:28:06.862Z,34.18
2022-08-03T11:30:33.142Z,35.48
2022-08-03T11:32:59.388Z,34.76
2022-08-03T11:35:25.591Z,34.47
2022-08-03T11:38:03.324Z,33.38
2022-08-03T11:40:31.598Z,34.25
2022-08-03T11:42:57.861Z,33.06
2022-08-03T11:45:24.098Z,33.22
2022-08-03T11:47:51.474Z,34.38
2022-08-03T11:50:17.855Z,33.25
2022-08-03T11:52:44.075Z,33.66
2022-08-03T11:55:10.337Z,32.70
2022-08-03T11:59:01.235Z,33.96
2022-08-03T12:00:22.785Z,34.39
2022-08-03T12:02:49.033Z,32.26
2022-08-03T12:05:15.324Z,32.15
2022-08-03T12:08:04.458Z,31.80
2022-08-03T12:10:27.970Z,34.43
2022-08-03T12:12:55.148Z,33.40
2022-08-03T12:15:21.371Z,34.31
2022-08-03T12:17:47.665Z,32.98
2022-08-03T12:20:13.980Z,32.34
2022-08-03T12:22:40.201Z,32.37
2022-08-03T12:25:06.432Z,31.69
2022-08-03T12:27:32.666Z,33.57
2022-08-03T12:29:59.354Z,32.59
2022-08-03T12:32:25.662Z,32.34
2022-08-03T12:34:51.883Z,32.11
2022-08-03T12:37:22.318Z,31.95
2022-08-03T12:40:02.433Z,31.84
2022-08-03T12:42:31.889Z,32.34
2022-08-03T12:44:58.091Z,33.15
2022-08-03T12:47:24.347Z,31.74
2022-08-03T12:49:50.558Z,32.49
2022-08-03T12:52:16.807Z,31.65
2022-08-03T12:54:43.008Z,30.46
2022-08-03T12:57:09.268Z,30.48
2022-08-03T12:59:40.706Z,31.82
2022-08-03T13:02:09.512Z,31.78
2022-08-03T13:04:36.059Z,30.54
2022-08-03T13:07:03.272Z,30.15
2022-08-03T13:09:29.677Z,30.49
2022-08-03T13:12:01.946Z,30.32
2022-08-03T13:14:28.552Z,30.39
2022-08-03T13:16:54.830Z,30.44
2022-08-03T13:19:21.009Z,30.24
2022-08-03T13:22:01.732Z,31.65
2022-08-03T13:24:31.735Z,30.79
2022-08-03T13:26:58.180Z,30.65
2022-08-03T13:29:24.377Z,30.03
2022-08-03T13:31:51.073Z,30.61
2022-08-03T13:34:22.272Z,30.35
2022-08-03T13:39:57.422Z,30.02
2022-08-03T13:42:22.078Z,30.32
2022-08-03T13:44:48.286Z,29.67
2022-08-03T13:47:14.545Z,28.95
2022-08-03T13:49:40.782Z,28.63
2022-08-03T13:52:07.025Z,31.20
2022-08-03T13:54:33.338Z,29.04
2022-08-03T13:58:01.251Z,30.24
2022-08-03T13:59:45.841Z,30.94
2022-08-03T14:02:12.090Z,30.02
2022-08-03T14:04:38.363Z,30.69
2022-08-03T14:07:04.621Z,29.58
2022-08-03T14:09:30.856Z,29.77
2022-08-03T14:12:08.175Z,29.90
2022-08-03T14:14:35.141Z,30.28
2022-08-03T14:17:01.367Z,28.91
2022-08-03T14:19:28.712Z,29.50
2022-08-03T14:22:06.068Z,27.72
2022-08-03T14:24:33.115Z,28.80
2022-08-03T14:27:07.174Z,30.01
2022-08-03T14:29:35.373Z,29.88
2022-08-03T14:32:11.529Z,29.21
2022-08-03T14:34:38.539Z,28.40
2022-08-03T14:37:04.821Z,28.42
2022-08-03T14:39:58.331Z,29.03
2022-08-03T14:42:17.252Z,28.09
2022-08-03T14:44:43.467Z,28.93
2022-08-03T14:47:09.714Z,28.57
2022-08-03T14:50:30.177Z,28.84
2022-08-03T14:52:22.167Z,28.70
2022-08-03T14:54:48.378Z,29.19
2022-08-03T14:57:14.614Z,29.80
2022-08-03T14:59:55.888Z,28.68
2022-08-03T15:02:24.194Z,28.31
2022-08-03T15:04:50.719Z,28.50
2022-08-03T15:07:17.071Z,28.95
2022-08-03T15:09:43.396Z,27.99
2022-08-03T15:12:09.613Z,28.20
2022-08-03T15:14:35.857Z,28.49
2022-08-03T15:17:04.135Z,27.92
2022-08-03T15:20:00.986Z,27.38
2022-08-03T15:22:16.592Z,27.65
2022-08-03T15:24:46.807Z,27.14
2022-08-03T15:27:13.078Z,27.66
2022-08-03T15:30:09.659Z,27.22
2022-08-03T15:32:25.537Z,28.14
2022-08-03T15:34:52.641Z,29.05
2022-08-03T15:37:18.851Z,28.46
2022-08-03T15:40:00.090Z,27.37
2022-08-03T15:42:26.916Z,28.04
2022-08-03T15:44:53.753Z,27.80
2022-08-03T15:47:21.238Z,28.28
2022-08-03T15:49:47.779Z,27.88
2022-08-03T15:52:14.085Z,27.97
2022-08-03T15:54:40.334Z,28.23
2022-08-03T15:57:06.652Z,28.85
2022-08-03T15:59:32.832Z,27.95
2022-08-03T16:01:59.091Z,28.56
2022-08-03T16:04:25.340Z,28.70
2022-08-03T16:06:51.570Z,28.11
2022-08-03T16:09:23.629Z,27.52
2022-08-03T16:12:03.981Z,27.42
2022-08-03T16:14:33.357Z,27.76
2022-08-03T16:17:01.974Z,28.53
2022-08-03T16:19:28.217Z,28.56
2022-08-03T16:21:54.422Z,28.80
2022-08-03T16:24:28.098Z,28.51
2022-08-03T16:26:54.508Z,27.88
2022-08-03T16:29:22.679Z,28.71
2022-08-03T16:31:51.132Z,28.95
2022-08-03T16:34:17.852Z,28.77
2022-08-03T16:36:45.244Z,27.89
2022-08-03T16:39:11.538Z,27.97
2022-08-03T16:41:54.348Z,28.25
2022-08-03T16:44:24.133Z,27.58
2022-08-03T16:46:53.343Z,27.76
2022-08-03T16:49:54.593Z,27.48
2022-08-03T16:52:07.137Z,29.09
2022-08-03T16:54:33.505Z,27.96
2022-08-03T16:57:01.090Z,27.83
2022-08-03T16:59:36.004Z,27.52
2022-08-03T17:02:07.973Z,26.92
2022-08-03T17:04:36.304Z,28.03
2022-08-03T17:07:06.672Z,28.75
2022-08-03T17:09:38.286Z,28.82
2022-08-03T17:12:05.123Z,28.27
2022-08-03T17:14:33.484Z,28.81
2022-08-03T17:16:59.721Z,29.62
2022-08-03T17:19:27.800Z,29.95
2022-08-03T17:21:55.433Z,30.47
2022-08-03T17:24:21.666Z,30.73
2022-08-03T17:26:51.512Z,31.49
2022-08-03T17:29:17.748Z,32.71
2022-08-03T17:31:49.646Z,32.07
2022-08-03T17:34:16.217Z,32.84
2022-08-03T17:37:03.407Z,32.99
2022-08-03T17:39:55.803Z,33.80
2022-08-03T17:42:26.925Z,35.81
2022-08-03T17:44:57.674Z,34.86
2022-08-03T17:47:23.900Z,35.08
2022-08-03T17:49:55.660Z,35.83
2022-08-03T17:52:22.016Z,36.41
2022-08-03T17:55:50.597Z,36.51
2022-08-03T17:58:01.441Z,36.21
2022-08-03T18:00:21.011Z,37.03
2022-08-03T18:02:49.289Z,36.60
2022-08-03T18:05:17.804Z,37.90
2022-08-03T18:07:48.023Z,37.78
2022-08-03T18:10:15.446Z,38.33
2022-08-03T18:12:42.210Z,38.41
2022-08-03T18:15:13.237Z,38.86
2022-08-03T18:17:58.076Z,39.06
2022-08-03T18:20:32.112Z,38.82
2022-08-03T18:23:05.364Z,39.71
2022-08-03T18:25:45.716Z,39.69
2022-08-03T18:28:16.427Z,40.27
2022-08-03T18:30:54.010Z,40.63
2022-08-03T18:34:17.194Z,40.48
2022-08-03T18:36:07.436Z,40.03
2022-08-03T18:38:35.416Z,40.22
2022-08-03T18:41:01.769Z,40.33
2022-08-03T18:43:46.712Z,40.47
2022-08-03T18:46:14.244Z,40.65
2022-08-03T18:48:40.473Z,41.41
2022-08-03T18:51:12.344Z,41.52
2022-08-03T18:54:02.789Z,42.05
2022-08-03T18:56:32.339Z,42.08
2022-08-03T18:59:02.243Z,43.00
2022-08-03T19:01:58.350Z,42.88
2022-08-03T19:04:15.223Z,43.94
2022-08-03T19:06:43.166Z,44.10
2022-08-03T19:09:10.358Z,44.22
2022-08-03T19:12:14.185Z,43.36
2022-08-03T19:14:22.802Z,44.67
2022-08-03T19:16:55.074Z,45.03
2022-08-03T19:19:21.286Z,45.88
2022-08-03T19:21:49.269Z,46.66
2022-08-03T19:24:15.703Z,46.53
2022-08-03T19:26:41.978Z,46.06
2022-08-03T19:29:11.349Z,46.17
2022-08-03T19:31:41.710Z,45.49
2022-08-03T19:34:25.455Z,45.92
2022-08-03T19:36:51.689Z,45.63
2022-08-03T19:39:17.954Z,46.11
2022-08-03T19:41:44.935Z,45.66
2022-08-03T19:44:19.859Z,46.65
2022-08-03T19:46:46.628Z,46.60
2022-08-03T19:49:15.088Z,46.36
2022-08-03T19:52:02.453Z,46.64
2022-08-03T19:54:29.849Z,46.86
2022-08-03T19:56:58.473Z,47.07
2022-08-03T19:59:24.724Z,46.97
2022-08-03T20:01:52.730Z,47.78
2022-08-03T20:04:18.947Z,48.01
2022-08-03T20:06:46.779Z,47.72
2022-08-03T20:09:15.922Z,47.17
2022-08-03T20:11:43.665Z,48.03
2022-08-03T20:14:11.272Z,47.87
2022-08-03T20:16:39.520Z,47.87
2022-08-03T20:19:05.708Z,48.53
2022-08-03T20:21:40.665Z,48.27
2022-08-03T20:24:24.376Z,48.17
2022-08-03T20:26:51.806Z,48.97
2022-08-03T20:29:19.618Z,49.12
2022-08-03T20:32:05.799Z,49.75
2022-08-03T20:34:32.682Z,49.96
2022-08-03T20:36:58.914Z,49.30
2022-08-03T20:39:26.190Z,49.21
2022-08-03T20:41:53.704Z,49.61
2022-08-03T20:44:25.780Z,50.08
2022-08-03T20:47:00.299Z,50.19
2022-08-03T20:49:27.027Z,50.36
2022-08-03T20:51:53.739Z,50.36
2022-08-03T20:54:22.968Z,50.72
2022-08-03T20:56:56.311Z,50.89
2022-08-03T20:59:22.577Z,51.14
2022-08-03T21:01:50.369Z,51.43
2022-08-03T21:04:20.900Z,50.27
2022-08-03T21:06:53.165Z,50.60
2022-08-03T21:09:19.858Z,51.55
2022-08-03T21:11:46.454Z,51.01
2022-08-03T21:14:12.675Z,50.70
2022-08-03T21:16:38.949Z,51.14
2022-08-03T21:19:05.115Z,51.60
2022-08-03T21:21:31.354Z,51.80
2022-08-03T21:23:57.564Z,51.98
2022-08-03T21:26:23.752Z,52.18
2022-08-03T21:28:49.987Z,51.98
2022-08-03T21:31:24.198Z,51.87
2022-08-03T21:33:52.023Z,52.30
2022-08-03T21:36:18.198Z,52.22
2022-08-03T21:38:44.402Z,52.51
2022-08-03T21:41:21.954Z,52.58
2022-08-03T21:43:48.144Z,53.51
2022-08-03T21:46:14.351Z,53.08
2022-08-03T21:48:40.555Z,53.38
2022-08-03T21:51:06.783Z,53.54
2022-08-03T21:54:02.791Z,53.80
2022-08-03T21:56:19.182Z,53.40
2022-08-03T21:58:45.373Z,53.87
2022-08-03T22:01:17.330Z,53.79
2022-08-03T22:03:53.909Z,54.19
2022-08-03T22:06:20.508Z,53.47
2022-08-03T22:08:48.782Z,53.66
2022-08-03T22:11:15.015Z,54.01
2022-08-03T22:13:43.282Z,54.35
2022-08-03T22:16:10.796Z,54.29
2022-08-03T22:18:37.044Z,53.73
2022-08-03T22:21:03.255Z,54.06
2022-08-03T22:23:29.856Z,54.03
2022-08-03T22:25:56.077Z,54.19
2022-08-03T22:28:22.289Z,54.26
2022-08-03T22:30:48.460Z,54.16
2022-08-03T22:33:14.687Z,55.45
2022-08-03T22:35:44.246Z,54.54
2022-08-03T22:38:14.391Z,55.32
2022-08-03T22:40:40.618Z,54.73
2022-08-03T22:43:06.803Z,54.44
2022-08-03T22:46:07.243Z,55.20
2022-08-03T22:48:19.259Z,55.13
2022-08-03T22:50:45.488Z,54.99
2022-08-03T22:53:11.701Z,55.74
2022-08-03T22:55:37.936Z,55.78
2022-08-03T22:58:04.120Z,56.34
2022-08-03T23:00:30.495Z,55.94
2022-08-03T23:02:56.769Z,55.90
2022-08-03T23:06:01.530Z,55.93
2022-08-03T23:08:09.202Z,56.38
2022-08-03T23:10:35.412Z,56.66
2022-08-03T23:13:01.605Z,56.71
2022-08-03T23:15:27.810Z,56.81
2022-08-03T23:17:57.950Z,56.95
2022-08-03T23:20:26.517Z,56.47
2022-08-03T23:22:52.955Z,57.30
2022-08-03T23:25:19.117Z,56.95
2022-08-03T23:27:45.353Z,57.29
2022-08-03T23:30:11.563Z,56.78
2022-08-03T23:32:37.773Z,57.08
2022-08-03T23:35:03.997Z,57.26
2022-08-03T23:37:30.221Z,57.29
2022-08-03T23:39:56.421Z,57.21
2022-08-03T23:42:22.625Z,57.77
2022-08-03T23:44:48.925Z,57.58
2022-08-03T23:47:15.145Z,57.70
2022-08-03T23:49:41.318Z,57.66
2022-08-03T23:52:07.540Z,57.50
2022-08-03T23:54:33.752Z,57.86
2022-08-03T23:56:59.968Z,57.88
2022-08-03T23:59:26.159Z,57.48
